Indianapolis, IN

8:42 PM EST on January 25, 2015 (GMT -0500)
Indianapolis Terry | Change Station
CLOSE
Current Station
Airport
Location: Indianapolis,
Elevation: 922 ft
Nearby Weather Stations
Active Advisory: Special Statement

Elev 922 ft 40.03 °N, 86.25 °W | Updated 7 minutes ago

Snow
Snow
25 °F
Feels Like 10 °F
N
21
Wind Variable Wind from NE
Gusts 30 mph

Today
High -- | Low -- °F
--% Chance of Precip.
Yesterday
High -- | Low -- °F
Precip. -- in
7:58 AM 5:55 PM
Waxing Crescent, 38% visible
Pressure 29.81 in
Visibility 10.0 miles
Clouds Mostly Cloudy 1300 ft
Overcast 2200 ft
Windchill 10 °F
Dew Point 19 °F
Humidity 81%
Rainfall 0.15 in
Snow Depth Not available.
UV 0 out of 12
Pollen .10 out of 12
Air Quality Not available.
Flu Activity Not available.
METAR KTYQ 260135Z AUTO 05018G26KT 10SM BKN013 OVC022 M04/M07 A2981 RMK AO2 T10411070

More Conditions Fewer Conditions

Pressure 29.81 in
Visibility 10.0 miles
Clouds Mostly Cloudy 1300 ft
Overcast 2200 ft
Windchill 10 °F
Dew Point 19 °F
Humidity 81%
Rainfall 0.15 in
Snow Depth Not available.
UV 0 out of 12
Pollen .10 out of 12
Air Quality Not available.
Flu Activity Not available.
METAR KTYQ 260135Z AUTO 05018G26KT 10SM BKN013 OVC022 M04/M07 A2981 RMK AO2 T10411070

More Conditions Fewer Conditions

10-Day Weather Forecast

Almanac

Astronomy

Jan. 25, 2015 Rise Set
Actual Time
Civil Twilight
Nautical Twilight
Astronomical Twilight
Moon
Length of Visible Light
Length of Day
Tomorrow will be .
, % of the Moon is Illuminated

Today's Extremes

State Highs State Lows

Community

WunderPhotos

Upload Photos

1,790,045 photos uploaded!

WunderBlogs® & News

Nearby

Air Quality

  Air Quality AQ Index Pollutant
Not available.

Snow Depth

Station Depth Elevation

Earthquake Activity

City Distance Mag. Time & Date
Minimum magnitude displayed is 2.5.

Coastal Water Temperatures

Place Temperature

Nearby Weather Stations